Time;durP1;ratioP1;P1;durP2;ratioP2;P2;SDS_P1;SDS_P2;PMS_P1;PMS_P2;Temp;Humidity;BMP_temperature;BMP_pressure;BME280_temperature;BME280_humidity;BME280_pressure;Samples;Min_cycle;Max_cycle;Signal;HPM_P1;HPM_P2
2023/10/17 00:02:02;;;;;;;0.90;0.90;;;;;;;;;;5022322;28;20200;-82
2023/10/17 00:04:32;;;;;;;0.80;0.80;;;;;;;;;;5021834;28;20546;-82
2023/10/17 00:06:58;;;;;;;0.80;0.80;;;;;;;;;;5022510;28;20231;-82
2023/10/17 00:09:36;;;;;;;0.80;0.80;;;;;;;;;;5024940;28;20371;-82
2023/10/17 00:12:15;;;;;;;0.73;0.73;;;;;;;;;;5024071;28;20586;-81
2023/10/17 00:17:19;;;;;;;0.80;0.80;;;;;;;;;;5022755;28;20190;-82
2023/10/17 00:19:49;;;;;;;0.77;0.77;;;;;;;;;;5022395;28;20181;-82
2023/10/17 00:22:23;;;;;;;0.87;0.87;;;;;;;;;;5022375;28;20200;-82
2023/10/17 00:24:54;;;;;;;0.80;0.80;;;;;;;;;;5021993;28;20215;-82
2023/10/17 00:27:20;;;;;;;0.90;0.90;;;;;;;;;;5022199;28;20193;-83
2023/10/17 00:29:46;;;;;;;0.77;0.77;;;;;;;;;;5022577;28;20177;-82
2023/10/17 00:32:12;;;;;;;0.80;0.80;;;;;;;;;;5021701;28;20205;-82
2023/10/17 00:34:40;;;;;;;0.80;0.80;;;;;;;;;;5021042;28;20267;-82
2023/10/17 00:37:10;;;;;;;0.93;0.93;;;;;;;;;;5020235;28;20187;-82
2023/10/17 00:39:37;;;;;;;0.90;0.90;;;;;;;;;;5022391;28;20173;-82
2023/10/17 00:44:30;;;;;;;0.80;0.80;;;;;;;;;;5021947;28;20173;-82
2023/10/17 00:47:00;;;;;;;0.80;0.80;;;;;;;;;;5022418;28;20180;-83
2023/10/17 00:49:26;;;;;;;0.80;0.80;;;;;;;;;;5024136;28;20165;-81
2023/10/17 00:51:58;;;;;;;0.80;0.80;;;;;;;;;;5030673;28;20223;-81
2023/10/17 00:54:25;;;;;;;0.90;0.90;;;;;;;;;;5027661;28;20176;-82
2023/10/17 00:56:55;;;;;;;0.90;0.90;;;;;;;;;;5022506;28;20177;-82
2023/10/17 00:59:24;;;;;;;0.80;0.80;;;;;;;;;;5021702;28;20194;-82
2023/10/17 01:01:51;;;;;;;0.80;0.80;;;;;;;;;;5022510;28;20183;-82
2023/10/17 01:04:22;;;;;;;0.70;0.70;;;;;;;;;;5023410;28;20169;-81
2023/10/17 01:06:54;;;;;;;0.83;0.83;;;;;;;;;;5025614;28;20212;-81
2023/10/17 01:09:24;;;;;;;0.80;0.80;;;;;;;;;;5027485;28;20176;-80
2023/10/17 01:11:50;;;;;;;0.87;0.87;;;;;;;;;;5022555;28;20567;-82
2023/10/17 01:14:19;;;;;;;0.87;0.87;;;;;;;;;;5021335;28;20256;-81
2023/10/17 01:16:46;;;;;;;0.90;0.90;;;;;;;;;;5022016;28;20266;-82
2023/10/17 01:19:14;;;;;;;0.80;0.80;;;;;;;;;;5021412;28;20511;-82
2023/10/17 01:21:41;;;;;;;0.80;0.80;;;;;;;;;;5021432;28;20172;-82
2023/10/17 01:24:07;;;;;;;0.90;0.90;;;;;;;;;;5021152;28;20262;-82
2023/10/17 01:26:37;;;;;;;0.87;0.87;;;;;;;;;;5020665;28;20207;-81
2023/10/17 01:29:04;;;;;;;0.80;0.80;;;;;;;;;;5020598;28;20198;-81
2023/10/17 01:31:32;;;;;;;0.70;0.70;;;;;;;;;;5021475;28;20223;-82
2023/10/17 01:34:02;;;;;;;0.77;0.77;;;;;;;;;;5018696;28;20173;-80
2023/10/17 01:36:28;;;;;;;0.80;0.80;;;;;;;;;;5019507;28;20192;-81
2023/10/17 01:38:54;;;;;;;0.70;0.70;;;;;;;;;;5021050;28;20562;-81
2023/10/17 01:41:20;;;;;;;0.80;0.80;;;;;;;;;;5020573;28;20176;-82
2023/10/17 01:43:47;;;;;;;0.90;0.90;;;;;;;;;;5020988;28;20177;-81
2023/10/17 01:46:23;;;;;;;0.87;0.87;;;;;;;;;;5020297;28;20211;-81
2023/10/17 01:48:50;;;;;;;0.80;0.80;;;;;;;;;;5020665;28;20192;-82
2023/10/17 01:51:16;;;;;;;0.90;0.90;;;;;;;;;;5021086;28;20338;-81
2023/10/17 01:53:43;;;;;;;0.80;0.80;;;;;;;;;;5020337;28;20177;-81
2023/10/17 01:56:16;;;;;;;0.80;0.80;;;;;;;;;;5018759;28;20203;-81
2023/10/17 01:58:48;;;;;;;0.80;0.80;;;;;;;;;;5020706;28;20180;-80
2023/10/17 02:01:16;;;;;;;0.70;0.70;;;;;;;;;;5020258;28;20255;-81
2023/10/17 02:03:42;;;;;;;0.80;0.80;;;;;;;;;;5020651;28;20547;-82
2023/10/17 02:06:14;;;;;;;0.80;0.80;;;;;;;;;;5019092;28;20661;-82
2023/10/17 02:08:44;;;;;;;0.80;0.80;;;;;;;;;;5019937;28;20615;-82
2023/10/17 02:11:43;;;;;;;0.70;0.70;;;;;;;;;;5020297;28;20236;-80
2023/10/17 02:14:01;;;;;;;0.90;0.90;;;;;;;;;;5020082;28;20215;-81
2023/10/17 02:16:28;;;;;;;0.87;0.87;;;;;;;;;;5023257;28;20252;-79
2023/10/17 02:18:54;;;;;;;0.80;0.80;;;;;;;;;;5037987;28;20229;-78
2023/10/17 02:21:23;;;;;;;0.87;0.87;;;;;;;;;;5035503;28;20173;-80
2023/10/17 02:23:49;;;;;;;0.90;0.90;;;;;;;;;;5015996;28;20191;-81
2023/10/17 02:26:22;;;;;;;0.80;0.80;;;;;;;;;;5017200;28;20205;-81
2023/10/17 02:28:53;;;;;;;0.80;0.80;;;;;;;;;;5019084;28;20284;-81
2023/10/17 02:31:29;;;;;;;0.80;0.80;;;;;;;;;;5020063;28;20204;-81
2023/10/17 02:33:56;;;;;;;0.90;0.90;;;;;;;;;;5020538;28;20179;-82
2023/10/17 02:36:22;;;;;;;0.80;0.80;;;;;;;;;;5021319;28;20196;-81
2023/10/17 02:38:48;;;;;;;0.83;0.83;;;;;;;;;;5020037;28;20172;-82
2023/10/17 02:41:18;;;;;;;0.80;0.80;;;;;;;;;;5021273;28;20240;-81
2023/10/17 02:43:48;;;;;;;0.90;0.90;;;;;;;;;;5021926;28;20353;-81
2023/10/17 02:46:14;;;;;;;0.80;0.80;;;;;;;;;;5029109;28;20195;-80
2023/10/17 02:48:42;;;;;;;0.90;0.90;;;;;;;;;;5029640;28;20177;-80
2023/10/17 02:51:54;;;;;;;0.90;0.90;;;;;;;;;;5022404;28;20229;-81
2023/10/17 02:53:56;;;;;;;0.90;0.90;;;;;;;;;;5021207;28;20200;-81
2023/10/17 02:56:22;;;;;;;0.73;0.73;;;;;;;;;;5021190;28;20226;-80
2023/10/17 02:58:50;;;;;;;0.80;0.80;;;;;;;;;;5019078;28;20203;-82
2023/10/17 03:01:16;;;;;;;0.90;0.90;;;;;;;;;;5020173;28;20192;-81
2023/10/17 03:03:42;;;;;;;0.80;0.80;;;;;;;;;;5019145;28;20553;-80
2023/10/17 03:06:09;;;;;;;0.90;0.90;;;;;;;;;;5018944;28;20201;-79
2023/10/17 03:08:39;;;;;;;0.83;0.83;;;;;;;;;;5021083;28;20177;-80
2023/10/17 03:11:08;;;;;;;0.80;0.80;;;;;;;;;;5019178;28;20221;-79
2023/10/17 03:13:40;;;;;;;0.77;0.77;;;;;;;;;;5018713;28;20246;-80
2023/10/17 03:16:25;;;;;;;0.80;0.80;;;;;;;;;;5019156;28;20200;-81
2023/10/17 03:18:52;;;;;;;0.73;0.73;;;;;;;;;;5018606;28;20236;-80
2023/10/17 03:21:20;;;;;;;0.80;0.80;;;;;;;;;;5021320;28;20208;-80
2023/10/17 03:23:49;;;;;;;0.80;0.80;;;;;;;;;;5023799;28;20212;-81
2023/10/17 03:26:19;;;;;;;0.80;0.80;;;;;;;;;;5023561;28;20276;-80
2023/10/17 03:28:49;;;;;;;0.90;0.90;;;;;;;;;;5024097;28;20211;-80
2023/10/17 03:31:20;;;;;;;0.80;0.80;;;;;;;;;;5023222;28;20247;-80
2023/10/17 03:33:51;;;;;;;0.80;0.80;;;;;;;;;;5023376;28;20184;-80
2023/10/17 03:39:19;;;;;;;0.80;0.80;;;;;;;;;;5023373;28;20632;-80
2023/10/17 03:41:45;;;;;;;0.80;0.80;;;;;;;;;;5022378;28;20208;-78
2023/10/17 03:44:15;;;;;;;0.90;0.90;;;;;;;;;;5023430;28;20172;-80
2023/10/17 03:46:46;;;;;;;0.87;0.87;;;;;;;;;;5024072;28;20228;-80
2023/10/17 03:49:17;;;;;;;0.80;0.80;;;;;;;;;;5028536;28;20240;-78
2023/10/17 03:51:46;;;;;;;0.90;0.90;;;;;;;;;;5032133;28;20188;-77
2023/10/17 03:54:17;;;;;;;0.80;0.80;;;;;;;;;;5023890;28;20228;-80
2023/10/17 03:56:49;;;;;;;0.80;0.80;;;;;;;;;;5022353;28;20195;-82
2023/10/17 04:01:47;;;;;;;0.80;0.80;;;;;;;;;;5021161;28;20173;-78
2023/10/17 04:04:13;;;;;;;0.90;0.90;;;;;;;;;;5021242;28;20172;-79
2023/10/17 04:06:40;;;;;;;0.70;0.70;;;;;;;;;;5020852;28;20264;-79
2023/10/17 04:11:53;;;;;;;0.80;0.80;;;;;;;;;;5020608;28;20218;-81
2023/10/17 04:14:21;;;;;;;0.80;0.80;;;;;;;;;;5019473;28;20315;-84
2023/10/17 04:16:48;;;;;;;0.90;0.90;;;;;;;;;;5012295;28;20193;-81
2023/10/17 04:19:17;;;;;;;0.90;0.90;;;;;;;;;;5013128;28;20180;-80
2023/10/17 04:24:34;;;;;;;0.90;0.90;;;;;;;;;;5014715;28;20689;-82
2023/10/17 04:27:30;;;;;;;0.80;0.80;;;;;;;;;;5014411;28;20199;-83
2023/10/17 04:29:57;;;;;;;0.83;0.83;;;;;;;;;;5019749;28;20179;-81
2023/10/17 04:32:27;;;;;;;0.90;0.90;;;;;;;;;;5020778;28;20740;-81
2023/10/17 04:34:55;;;;;;;0.73;0.73;;;;;;;;;;5021459;28;20269;-80
2023/10/17 04:37:25;;;;;;;0.80;0.80;;;;;;;;;;5022147;28;20253;-82
2023/10/17 04:39:58;;;;;;;0.80;0.80;;;;;;;;;;5020606;28;20169;-82
2023/10/17 04:45:19;;;;;;;0.83;0.83;;;;;;;;;;5019132;28;20742;-81
2023/10/17 04:48:02;;;;;;;0.80;0.80;;;;;;;;;;5000848;28;20193;-81
2023/10/17 04:50:40;;;;;;;0.90;0.90;;;;;;;;;;4996605;28;20183;-79
2023/10/17 04:53:06;;;;;;;0.80;0.80;;;;;;;;;;4997384;28;20642;-79
2023/10/17 04:55:40;;;;;;;0.87;0.87;;;;;;;;;;4996179;28;20198;-81
2023/10/17 06:17:29;;;;;;;0.80;0.80;;;;;;;;;;4998923;28;20205;-81
2023/10/17 06:19:58;;;;;;;0.80;0.80;;;;;;;;;;5007531;28;20172;-79
2023/10/17 06:31:10;;;;;;;0.90;0.90;;;;;;;;;;5009375;28;20293;-80
2023/10/17 06:33:35;;;;;;;0.80;0.80;;;;;;;;;;5008653;28;20172;-79
2023/10/17 06:36:13;;;;;;;0.80;0.80;;;;;;;;;;5007442;28;20879;-81
2023/10/17 06:38:47;;;;;;;0.90;0.90;;;;;;;;;;5008037;28;20181;-81
2023/10/17 06:41:27;;;;;;;0.90;0.90;;;;;;;;;;5007472;28;20579;-81
2023/10/17 06:43:58;;;;;;;0.80;0.80;;;;;;;;;;5009558;28;20169;-79
2023/10/17 06:46:30;;;;;;;0.90;0.90;;;;;;;;;;5006261;28;20709;-80
2023/10/17 06:49:07;;;;;;;0.70;0.70;;;;;;;;;;5006771;28;20181;-80
2023/10/17 06:51:36;;;;;;;0.80;0.80;;;;;;;;;;5014969;28;20208;-79
2023/10/17 06:54:06;;;;;;;0.90;0.90;;;;;;;;;;5014547;28;20623;-81
2023/10/17 06:56:38;;;;;;;0.77;0.77;;;;;;;;;;5006999;28;20704;-81
2023/10/17 06:59:05;;;;;;;0.80;0.80;;;;;;;;;;5011658;28;20603;-79
2023/10/17 07:01:33;;;;;;;0.80;0.80;;;;;;;;;;5009331;28;20185;-80
2023/10/17 07:04:02;;;;;;;0.70;0.70;;;;;;;;;;5010549;28;20176;-80
2023/10/17 07:06:29;;;;;;;0.70;0.70;;;;;;;;;;5003547;28;20249;-80
2023/10/17 07:08:56;;;;;;;0.90;0.90;;;;;;;;;;5002172;28;20675;-80
2023/10/17 07:11:29;;;;;;;0.90;0.90;;;;;;;;;;5002353;28;20216;-79
2023/10/17 07:17:17;;;;;;;0.87;0.87;;;;;;;;;;5001854;28;20200;-80
2023/10/17 07:24:25;;;;;;;0.80;0.80;;;;;;;;;;5000699;28;20191;-79
2023/10/17 07:26:52;;;;;;;0.80;0.80;;;;;;;;;;4999950;28;20196;-78
2023/10/17 07:29:22;;;;;;;0.80;0.80;;;;;;;;;;5001289;28;20165;-79
2023/10/17 07:31:52;;;;;;;0.80;0.80;;;;;;;;;;5001772;28;20642;-78
2023/10/17 07:34:21;;;;;;;0.70;0.70;;;;;;;;;;5000789;28;20243;-79
2023/10/17 07:36:50;;;;;;;0.70;0.70;;;;;;;;;;5001328;28;20631;-79
2023/10/17 07:39:22;;;;;;;0.77;0.77;;;;;;;;;;5001277;28;20189;-78
2023/10/17 07:41:55;;;;;;;0.80;0.80;;;;;;;;;;5001594;28;20225;-79
2023/10/17 07:44:22;;;;;;;0.60;0.60;;;;;;;;;;5001200;28;20184;-80
2023/10/17 07:47:08;;;;;;;0.80;0.80;;;;;;;;;;5003713;28;20300;-79
2023/10/17 07:49:35;;;;;;;0.60;0.60;;;;;;;;;;5001511;28;20181;-80
2023/10/17 07:52:07;;;;;;;0.60;0.60;;;;;;;;;;5000495;28;20201;-81
2023/10/17 07:54:38;;;;;;;0.50;0.50;;;;;;;;;;5000158;28;20316;-81
2023/10/17 07:57:06;;;;;;;0.53;0.53;;;;;;;;;;4999706;28;20184;-79
2023/10/17 07:59:32;;;;;;;0.60;0.60;;;;;;;;;;5000898;28;20228;-80
2023/10/17 08:02:00;;;;;;;0.60;0.60;;;;;;;;;;5000511;28;20181;-80
2023/10/17 08:04:30;;;;;;;0.50;0.50;;;;;;;;;;4999320;28;20642;-82
2023/10/17 08:06:56;;;;;;;0.60;0.60;;;;;;;;;;5000751;28;20257;-80
2023/10/17 08:11:52;;;;;;;0.60;0.60;;;;;;;;;;5000812;28;20216;-80
2023/10/17 08:14:23;;;;;;;0.67;0.67;;;;;;;;;;5003340;28;20185;-80
2023/10/17 08:16:54;;;;;;;0.60;0.60;;;;;;;;;;5002592;28;20189;-81
2023/10/17 08:19:23;;;;;;;0.70;0.70;;;;;;;;;;5001752;28;20173;-80
2023/10/17 08:24:25;;;;;;;0.70;0.70;;;;;;;;;;4997700;28;20189;-80
2023/10/17 08:27:13;;;;;;;0.50;0.50;;;;;;;;;;4999231;28;20273;-81
2023/10/17 08:29:38;;;;;;;0.70;0.70;;;;;;;;;;5000737;28;20281;-81
2023/10/17 08:32:20;;;;;;;0.50;0.50;;;;;;;;;;5001676;28;20733;-80
2023/10/17 08:34:48;;;;;;;0.57;0.57;;;;;;;;;;5020781;28;20209;-81
2023/10/17 08:37:19;;;;;;;0.63;0.63;;;;;;;;;;5020142;28;20173;-81
2023/10/17 08:42:14;;;;;;;0.60;0.60;;;;;;;;;;5019549;28;20215;-82
2023/10/17 08:44:42;;;;;;;0.60;0.60;;;;;;;;;;5018691;28;20177;-81
2023/10/17 08:47:11;;;;;;;0.70;0.70;;;;;;;;;;5018597;28;20181;-81
2023/10/17 08:49:38;;;;;;;0.70;0.70;;;;;;;;;;5019270;28;20260;-82
2023/10/17 08:52:05;;;;;;;0.60;0.60;;;;;;;;;;5019748;28;20757;-82
2023/10/17 08:54:32;;;;;;;0.60;0.60;;;;;;;;;;5018294;28;20541;-81
2023/10/17 08:57:03;;;;;;;0.60;0.60;;;;;;;;;;5019600;28;20187;-83
2023/10/17 09:02:03;;;;;;;0.60;0.60;;;;;;;;;;5019315;28;20204;-81
2023/10/17 09:04:33;;;;;;;0.60;0.60;;;;;;;;;;5018180;28;20271;-82
2023/10/17 09:07:08;;;;;;;0.60;0.60;;;;;;;;;;5018728;28;20566;-82
2023/10/17 09:09:34;;;;;;;0.67;0.67;;;;;;;;;;5019800;28;20167;-81
2023/10/17 09:12:01;;;;;;;0.60;0.60;;;;;;;;;;5019415;28;20713;-81
2023/10/17 09:14:29;;;;;;;0.60;0.60;;;;;;;;;;5016618;28;20189;-81
2023/10/17 09:19:51;;;;;;;0.60;0.60;;;;;;;;;;5018482;28;20215;-81
2023/10/17 09:22:38;;;;;;;0.70;0.70;;;;;;;;;;5017206;28;20562;-82
2023/10/17 09:25:19;;;;;;;0.60;0.60;;;;;;;;;;5017691;28;20212;-82
2023/10/17 09:27:49;;;;;;;0.50;0.50;;;;;;;;;;5018716;28;20184;-82
2023/10/17 09:30:17;;;;;;;0.67;0.67;;;;;;;;;;5020225;28;20716;-82
2023/10/17 09:32:44;;;;;;;0.50;0.50;;;;;;;;;;5020145;28;20220;-82
2023/10/17 09:35:11;;;;;;;0.80;0.80;;;;;;;;;;5019819;28;20222;-81
2023/10/17 09:37:43;;;;;;;0.60;0.60;;;;;;;;;;5021614;28;20180;-80
2023/10/17 09:40:18;;;;;;;0.60;0.60;;;;;;;;;;5025964;28;20164;-79
2023/10/17 09:42:45;;;;;;;0.70;0.70;;;;;;;;;;5037595;28;20163;-79
2023/10/17 09:45:12;;;;;;;0.70;0.70;;;;;;;;;;5034556;28;20184;-79
2023/10/17 09:47:44;;;;;;;0.50;0.50;;;;;;;;;;5038216;28;20179;-78
2023/10/17 09:50:16;;;;;;;0.50;0.50;;;;;;;;;;5037427;28;20202;-80
2023/10/17 09:52:42;;;;;;;0.60;0.60;;;;;;;;;;5035020;28;20209;-81
2023/10/17 09:55:13;;;;;;;0.60;0.60;;;;;;;;;;5014979;28;20693;-83
2023/10/17 09:57:41;;;;;;;0.60;0.60;;;;;;;;;;5008734;28;20185;-81
2023/10/17 10:00:17;;;;;;;0.60;0.60;;;;;;;;;;5007994;28;20192;-81
2023/10/17 10:02:44;;;;;;;0.50;0.50;;;;;;;;;;5013423;28;20182;-80
2023/10/17 10:05:28;;;;;;;0.43;0.43;;;;;;;;;;5012602;28;20201;-80
2023/10/17 10:07:55;;;;;;;0.60;0.60;;;;;;;;;;5015640;28;20169;-83
2023/10/17 10:10:39;;;;;;;0.50;0.50;;;;;;;;;;5017959;28;20207;-82
2023/10/17 10:13:08;;;;;;;0.53;0.53;;;;;;;;;;5018061;28;20708;-81
2023/10/17 10:15:50;;;;;;;0.50;0.50;;;;;;;;;;5018699;28;20196;-81
2023/10/17 10:18:16;;;;;;;0.50;0.50;;;;;;;;;;5019618;28;20176;-82
2023/10/17 10:20:55;;;;;;;0.60;0.60;;;;;;;;;;5019023;28;20246;-81
2023/10/17 10:23:34;;;;;;;0.50;0.50;;;;;;;;;;5018401;28;20176;-82
2023/10/17 10:26:12;;;;;;;0.60;0.60;;;;;;;;;;5018090;28;20200;-79
2023/10/17 10:28:38;;;;;;;0.40;0.40;;;;;;;;;;5014858;28;20181;-81
2023/10/17 10:31:24;;;;;;;0.50;0.50;;;;;;;;;;5021833;28;20204;-82
2023/10/17 10:33:51;;;;;;;0.30;0.30;;;;;;;;;;5016013;28;20177;-81
2023/10/17 10:36:18;;;;;;;0.67;0.67;;;;;;;;;;5022595;28;20208;-81
2023/10/17 10:38:50;;;;;;;0.50;0.50;;;;;;;;;;5028649;28;20165;-83
2023/10/17 10:41:17;;;;;;;0.50;0.50;;;;;;;;;;5027590;28;20184;-80
2023/10/17 10:43:44;;;;;;;0.40;0.40;;;;;;;;;;5028909;28;20286;-80
2023/10/17 10:46:10;;;;;;;0.47;0.47;;;;;;;;;;5024468;28;20203;-79
2023/10/17 10:48:38;;;;;;;0.50;0.50;;;;;;;;;;5016291;28;20311;-80
2023/10/17 10:51:04;;;;;;;0.40;0.40;;;;;;;;;;5011492;28;20184;-82
2023/10/17 10:53:36;;;;;;;0.50;0.50;;;;;;;;;;4994430;28;20677;-81
2023/10/17 10:56:13;;;;;;;0.40;0.40;;;;;;;;;;4995063;28;20201;-82
2023/10/17 10:58:47;;;;;;;0.50;0.50;;;;;;;;;;4996930;28;20176;-80
2023/10/17 11:01:13;;;;;;;0.60;0.60;;;;;;;;;;4997565;28;20235;-82
2023/10/17 11:03:44;;;;;;;0.50;0.50;;;;;;;;;;4996557;28;20181;-81
2023/10/17 11:06:10;;;;;;;0.60;0.60;;;;;;;;;;4996666;28;20207;-80
2023/10/17 11:08:36;;;;;;;0.60;0.60;;;;;;;;;;4998933;28;20651;-82
2023/10/17 11:11:06;;;;;;;0.60;0.60;;;;;;;;;;4998045;28;20204;-80
2023/10/17 11:13:32;;;;;;;0.50;0.50;;;;;;;;;;4997658;28;20281;-83
2023/10/17 11:15:59;;;;;;;0.50;0.50;;;;;;;;;;4995492;28;20201;-81
2023/10/17 11:18:25;;;;;;;0.60;0.60;;;;;;;;;;4997622;28;20185;-81
2023/10/17 11:20:55;;;;;;;0.57;0.57;;;;;;;;;;4998014;28;20238;-81
2023/10/17 11:23:26;;;;;;;0.53;0.53;;;;;;;;;;4997731;28;20181;-82
2023/10/17 11:25:52;;;;;;;0.50;0.50;;;;;;;;;;4996468;28;20216;-81
2023/10/17 11:28:18;;;;;;;0.50;0.50;;;;;;;;;;4997933;28;20196;-83
2023/10/17 11:30:45;;;;;;;0.50;0.50;;;;;;;;;;4998381;28;20662;-82
2023/10/17 11:33:18;;;;;;;0.40;0.40;;;;;;;;;;4998738;28;20205;-82
2023/10/17 11:35:48;;;;;;;0.40;0.40;;;;;;;;;;4998431;28;20243;-84
2023/10/17 11:38:37;;;;;;;0.50;0.50;;;;;;;;;;4998812;28;20253;-81
2023/10/17 11:41:05;;;;;;;0.50;0.50;;;;;;;;;;5006248;28;20203;-83
2023/10/17 11:43:34;;;;;;;0.60;0.60;;;;;;;;;;5022149;28;20255;-81
2023/10/17 11:46:12;;;;;;;0.43;0.43;;;;;;;;;;5023679;28;20208;-82
2023/10/17 11:48:43;;;;;;;0.50;0.50;;;;;;;;;;5024109;28;20188;-81
2023/10/17 11:51:13;;;;;;;0.40;0.40;;;;;;;;;;5022949;28;20224;-82
2023/10/17 11:53:57;;;;;;;0.50;0.50;;;;;;;;;;5023711;28;20177;-82
2023/10/17 11:56:23;;;;;;;0.50;0.50;;;;;;;;;;5022422;28;20207;-82
2023/10/17 11:58:53;;;;;;;0.50;0.50;;;;;;;;;;5023422;28;20192;-82
2023/10/17 12:01:19;;;;;;;0.50;0.50;;;;;;;;;;5025142;28;20267;-80
2023/10/17 12:03:45;;;;;;;0.40;0.40;;;;;;;;;;5023560;28;20192;-80
2023/10/17 12:06:15;;;;;;;0.40;0.40;;;;;;;;;;5024729;28;20197;-81
2023/10/17 12:08:43;;;;;;;0.40;0.40;;;;;;;;;;5024023;28;20563;-82
2023/10/17 12:11:09;;;;;;;0.50;0.50;;;;;;;;;;5024195;28;20262;-81
2023/10/17 12:13:35;;;;;;;0.50;0.50;;;;;;;;;;5026119;28;20223;-80
2023/10/17 12:16:08;;;;;;;0.50;0.50;;;;;;;;;;5035842;28;20189;-83
2023/10/17 12:18:35;;;;;;;0.50;0.50;;;;;;;;;;5035640;28;20169;-81
2023/10/17 12:21:01;;;;;;;0.50;0.50;;;;;;;;;;5036897;28;20180;-81
2023/10/17 12:23:31;;;;;;;0.50;0.50;;;;;;;;;;5033357;28;20176;-81
2023/10/17 12:26:13;;;;;;;0.50;0.50;;;;;;;;;;5018348;28;20852;-82
2023/10/17 12:28:41;;;;;;;0.60;0.60;;;;;;;;;;5020409;28;20242;-81
2023/10/17 12:31:07;;;;;;;0.50;0.50;;;;;;;;;;5021802;28;20173;-82
2023/10/17 12:33:33;;;;;;;0.50;0.50;;;;;;;;;;5022228;28;20691;-80
2023/10/17 12:35:59;;;;;;;0.40;0.40;;;;;;;;;;5022780;28;20236;-80
2023/10/17 12:38:25;;;;;;;0.50;0.50;;;;;;;;;;5023499;28;20261;-80
2023/10/17 12:40:54;;;;;;;0.50;0.50;;;;;;;;;;5023989;28;20176;-80
2023/10/17 12:43:21;;;;;;;0.40;0.40;;;;;;;;;;5025154;28;20187;-79
2023/10/17 12:45:49;;;;;;;0.50;0.50;;;;;;;;;;5022711;28;20220;-82
2023/10/17 12:48:15;;;;;;;0.60;0.60;;;;;;;;;;5022263;28;20180;-81
2023/10/17 12:50:44;;;;;;;0.50;0.50;;;;;;;;;;5023895;28;20226;-80
2023/10/17 12:53:11;;;;;;;0.40;0.40;;;;;;;;;;5028575;28;20719;-80
2023/10/17 12:55:38;;;;;;;0.40;0.40;;;;;;;;;;5026037;28;20207;-80
2023/10/17 12:58:07;;;;;;;0.50;0.50;;;;;;;;;;5016801;28;20180;-81
2023/10/17 13:00:33;;;;;;;0.50;0.50;;;;;;;;;;5017660;28;20692;-79
2023/10/17 13:03:00;;;;;;;0.50;0.50;;;;;;;;;;5017908;28;20553;-82
2023/10/17 13:05:26;;;;;;;0.60;0.60;;;;;;;;;;5016589;28;20208;-80
2023/10/17 13:07:56;;;;;;;0.50;0.50;;;;;;;;;;5018540;28;20180;-79
2023/10/17 13:10:22;;;;;;;0.50;0.50;;;;;;;;;;5027841;28;20211;-78
2023/10/17 13:12:47;;;;;;;0.50;0.50;;;;;;;;;;5038852;28;20200;-79
2023/10/17 13:15:16;;;;;;;0.47;0.47;;;;;;;;;;5026783;28;20258;-78
2023/10/17 13:17:43;;;;;;;0.60;0.60;;;;;;;;;;5014255;28;20196;-78
2023/10/17 13:20:10;;;;;;;0.50;0.50;;;;;;;;;;5012912;28;20195;-80
2023/10/17 13:22:42;;;;;;;0.50;0.50;;;;;;;;;;5015604;28;20184;-78
2023/10/17 13:25:10;;;;;;;0.50;0.50;;;;;;;;;;5015032;28;20236;-80
2023/10/17 13:27:37;;;;;;;0.57;0.57;;;;;;;;;;5016346;28;20172;-80
2023/10/17 13:30:04;;;;;;;0.50;0.50;;;;;;;;;;5016765;28;20560;-82
2023/10/17 13:32:31;;;;;;;0.40;0.40;;;;;;;;;;5017104;28;20673;-79
2023/10/17 13:34:57;;;;;;;0.50;0.50;;;;;;;;;;5016624;28;20195;-80
2023/10/17 13:37:23;;;;;;;0.53;0.53;;;;;;;;;;5016530;28;20595;-81
2023/10/17 13:39:49;;;;;;;0.47;0.47;;;;;;;;;;5017408;28;20268;-80
2023/10/17 13:42:15;;;;;;;0.53;0.53;;;;;;;;;;5018663;28;20180;-79
2023/10/17 13:44:41;;;;;;;0.60;0.60;;;;;;;;;;5016279;28;20432;-81
2023/10/17 13:47:07;;;;;;;0.53;0.53;;;;;;;;;;5016085;28;20711;-81
2023/10/17 13:49:36;;;;;;;0.50;0.50;;;;;;;;;;5016030;28;20176;-79
2023/10/17 13:52:03;;;;;;;0.60;0.60;;;;;;;;;;5015264;28;20204;-81
2023/10/17 13:54:34;;;;;;;0.43;0.43;;;;;;;;;;5029466;28;20203;-78
2023/10/17 13:57:00;;;;;;;0.50;0.50;;;;;;;;;;5033417;28;20206;-78
2023/10/17 13:59:38;;;;;;;0.40;0.40;;;;;;;;;;5033216;28;20183;-78
2023/10/17 14:02:05;;;;;;;0.60;0.60;;;;;;;;;;5032914;28;20180;-78
2023/10/17 14:04:32;;;;;;;0.53;0.53;;;;;;;;;;5025866;28;20648;-82
2023/10/17 14:06:58;;;;;;;0.60;0.60;;;;;;;;;;5021588;28;20195;-82
2023/10/17 14:09:24;;;;;;;0.60;0.60;;;;;;;;;;5021990;28;20173;-80
2023/10/17 14:11:51;;;;;;;0.70;0.70;;;;;;;;;;5017817;28;20215;-82
2023/10/17 14:14:18;;;;;;;0.67;0.67;;;;;;;;;;5014482;28;20191;-79
2023/10/17 14:16:50;;;;;;;0.60;0.60;;;;;;;;;;5012528;28;20204;-79
2023/10/17 14:19:18;;;;;;;0.60;0.60;;;;;;;;;;5014794;28;20191;-79
2023/10/17 14:22:01;;;;;;;0.60;0.60;;;;;;;;;;5016931;28;20245;-81
2023/10/17 14:24:29;;;;;;;0.50;0.50;;;;;;;;;;5014818;28;20176;-78
2023/10/17 14:26:57;;;;;;;0.60;0.60;;;;;;;;;;5016613;28;20240;-80
2023/10/17 14:29:23;;;;;;;0.47;0.47;;;;;;;;;;5014942;28;20539;-80
2023/10/17 14:31:50;;;;;;;0.40;0.40;;;;;;;;;;5012590;28;20196;-79
2023/10/17 14:34:17;;;;;;;0.60;0.60;;;;;;;;;;5013089;28;20196;-78
2023/10/17 14:36:46;;;;;;;0.50;0.50;;;;;;;;;;5020166;28;20189;-78
2023/10/17 14:39:12;;;;;;;0.50;0.50;;;;;;;;;;5017994;28;20196;-78
2023/10/17 14:41:40;;;;;;;0.60;0.60;;;;;;;;;;5018058;28;20169;-78
2023/10/17 14:44:06;;;;;;;0.50;0.50;;;;;;;;;;5017996;28;20216;-78
2023/10/17 14:46:32;;;;;;;0.50;0.50;;;;;;;;;;5014208;28;20202;-78
2023/10/17 14:48:58;;;;;;;0.60;0.60;;;;;;;;;;5001737;28;20211;-81
2023/10/17 14:51:25;;;;;;;0.47;0.47;;;;;;;;;;4998644;28;20225;-80
2023/10/17 14:53:51;;;;;;;0.50;0.50;;;;;;;;;;4997392;28;20289;-80
2023/10/17 14:56:19;;;;;;;0.60;0.60;;;;;;;;;;4998385;28;20794;-81
2023/10/17 14:58:46;;;;;;;0.60;0.60;;;;;;;;;;5010917;28;20227;-79
2023/10/17 15:01:12;;;;;;;0.50;0.50;;;;;;;;;;5017220;28;20172;-81
2023/10/17 15:03:39;;;;;;;0.50;0.50;;;;;;;;;;5016199;28;20203;-81
2023/10/17 15:06:09;;;;;;;0.50;0.50;;;;;;;;;;5017493;28;20208;-82
2023/10/17 15:08:35;;;;;;;0.60;0.60;;;;;;;;;;5018863;28;20184;-81
2023/10/17 15:11:10;;;;;;;0.50;0.50;;;;;;;;;;5017118;28;20173;-81
2023/10/17 15:13:37;;;;;;;0.60;0.60;;;;;;;;;;5016333;28;20561;-80
2023/10/17 15:16:03;;;;;;;0.50;0.50;;;;;;;;;;5016602;28;20189;-84
2023/10/17 15:18:29;;;;;;;0.57;0.57;;;;;;;;;;5021463;28;20662;-81
2023/10/17 15:21:13;;;;;;;0.50;0.50;;;;;;;;;;5026094;28;20184;-79
2023/10/17 15:23:46;;;;;;;0.57;0.57;;;;;;;;;;5024297;28;20180;-81
2023/10/17 15:26:12;;;;;;;0.60;0.60;;;;;;;;;;5018899;28;20204;-83
2023/10/17 15:28:44;;;;;;;0.53;0.53;;;;;;;;;;5004821;28;20191;-80
2023/10/17 15:31:10;;;;;;;0.50;0.50;;;;;;;;;;5009811;28;20204;-81
2023/10/17 15:33:37;;;;;;;0.50;0.50;;;;;;;;;;5003831;28;20182;-84
2023/10/17 15:36:06;;;;;;;0.60;0.60;;;;;;;;;;5000728;28;20228;-79
2023/10/17 15:38:32;;;;;;;0.40;0.40;;;;;;;;;;5007636;28;20185;-81
2023/10/17 15:40:59;;;;;;;0.50;0.50;;;;;;;;;;5007468;28;20193;-79
2023/10/17 15:43:25;;;;;;;0.53;0.53;;;;;;;;;;4999734;28;20174;-82
2023/10/17 15:45:58;;;;;;;0.50;0.50;;;;;;;;;;5001512;28;20252;-80
2023/10/17 15:48:24;;;;;;;0.50;0.50;;;;;;;;;;5001598;28;20177;-81
2023/10/17 15:50:51;;;;;;;0.53;0.53;;;;;;;;;;5008345;28;20540;-81
2023/10/17 15:53:17;;;;;;;0.50;0.50;;;;;;;;;;5016612;28;20217;-80
2023/10/17 15:55:53;;;;;;;0.50;0.50;;;;;;;;;;5020316;28;20196;-80
2023/10/17 15:58:23;;;;;;;0.60;0.60;;;;;;;;;;5017789;28;20618;-79
2023/10/17 16:00:49;;;;;;;0.60;0.60;;;;;;;;;;5017922;28;20268;-78
2023/10/17 16:03:17;;;;;;;0.50;0.50;;;;;;;;;;5017675;28;20296;-79
2023/10/17 16:05:43;;;;;;;0.50;0.50;;;;;;;;;;5018051;28;20192;-80
2023/10/17 16:08:10;;;;;;;0.40;0.40;;;;;;;;;;5017900;28;20237;-80
2023/10/17 16:10:37;;;;;;;0.57;0.57;;;;;;;;;;5018950;28;20180;-79
2023/10/17 16:13:03;;;;;;;0.60;0.60;;;;;;;;;;5004353;28;20720;-84
2023/10/17 16:15:29;;;;;;;0.60;0.60;;;;;;;;;;5010607;28;20236;-80
2023/10/17 16:17:55;;;;;;;0.50;0.50;;;;;;;;;;5000485;28;20186;-80
2023/10/17 16:20:22;;;;;;;0.60;0.60;;;;;;;;;;4998535;28;20177;-83
2023/10/17 16:22:48;;;;;;;0.50;0.50;;;;;;;;;;5014943;28;20184;-78
2023/10/17 16:25:14;;;;;;;0.60;0.60;;;;;;;;;;5017619;28;20204;-83
2023/10/17 16:27:40;;;;;;;0.50;0.50;;;;;;;;;;5017801;28;20186;-80
2023/10/17 16:30:12;;;;;;;0.60;0.60;;;;;;;;;;5033785;28;20179;-77
2023/10/17 16:32:44;;;;;;;0.50;0.50;;;;;;;;;;5038673;28;20211;-80
2023/10/17 16:35:10;;;;;;;0.70;0.70;;;;;;;;;;5013063;28;20208;-79
2023/10/17 16:37:36;;;;;;;0.50;0.50;;;;;;;;;;5006765;28;20236;-78
2023/10/17 16:40:03;;;;;;;0.60;0.60;;;;;;;;;;5005189;28;20195;-82
2023/10/17 16:42:30;;;;;;;0.60;0.60;;;;;;;;;;5006664;28;20263;-81
2023/10/17 16:44:56;;;;;;;0.60;0.60;;;;;;;;;;5007680;28;20213;-79
2023/10/17 16:47:25;;;;;;;0.60;0.60;;;;;;;;;;5017599;28;20219;-80
2023/10/17 16:49:52;;;;;;;0.70;0.70;;;;;;;;;;5016717;28;20184;-82
2023/10/17 16:52:20;;;;;;;0.70;0.70;;;;;;;;;;5013762;28;20205;-79
2023/10/17 16:54:46;;;;;;;0.60;0.60;;;;;;;;;;5015976;28;20219;-81
2023/10/17 16:57:13;;;;;;;0.60;0.60;;;;;;;;;;5021312;28;20177;-83
2023/10/17 16:59:40;;;;;;;0.63;0.63;;;;;;;;;;5021053;28;20236;-82
2023/10/17 17:02:06;;;;;;;0.60;0.60;;;;;;;;;;5013293;28;20193;-81
2023/10/17 17:04:32;;;;;;;0.67;0.67;;;;;;;;;;5017785;28;20196;-83